sensor_id;sensor_type;location;lat;lon;timestamp;P1;durP1;ratioP1;P2;durP2;ratioP2
56255;SDS011;57229;51.432;-2.598;2023-10-09T00:01:42;12.68;;;9.30;;
56255;SDS011;57229;51.432;-2.598;2023-10-09T00:04:12;14.27;;;9.55;;
56255;SDS011;57229;51.432;-2.598;2023-10-09T00:06:39;14.00;;;8.93;;
56255;SDS011;57229;51.432;-2.598;2023-10-09T00:09:07;12.77;;;9.18;;
56255;SDS011;57229;51.432;-2.598;2023-10-09T00:11:48;13.63;;;8.57;;
56255;SDS011;57229;51.432;-2.598;2023-10-09T00:14:21;13.60;;;8.80;;
56255;SDS011;57229;51.432;-2.598;2023-10-09T00:16:47;10.23;;;8.10;;
56255;SDS011;57229;51.432;-2.598;2023-10-09T00:19:14;11.23;;;8.90;;
56255;SDS011;57229;51.432;-2.598;2023-10-09T00:21:40;11.63;;;8.60;;
56255;SDS011;57229;51.432;-2.598;2023-10-09T00:24:06;13.38;;;8.98;;
56255;SDS011;57229;51.432;-2.598;2023-10-09T00:26:39;15.15;;;9.45;;
56255;SDS011;57229;51.432;-2.598;2023-10-09T00:29:09;15.30;;;9.93;;
56255;SDS011;57229;51.432;-2.598;2023-10-09T00:31:40;16.98;;;10.18;;
56255;SDS011;57229;51.432;-2.598;2023-10-09T00:34:17;14.75;;;9.75;;
56255;SDS011;57229;51.432;-2.598;2023-10-09T00:36:47;16.23;;;9.02;;
56255;SDS011;57229;51.432;-2.598;2023-10-09T00:39:17;12.20;;;9.20;;
56255;SDS011;57229;51.432;-2.598;2023-10-09T00:42:06;12.60;;;9.02;;
56255;SDS011;57229;51.432;-2.598;2023-10-09T00:44:32;11.10;;;8.73;;
56255;SDS011;57229;51.432;-2.598;2023-10-09T00:47:11;13.95;;;8.70;;
56255;SDS011;57229;51.432;-2.598;2023-10-09T00:50:09;14.52;;;9.60;;
56255;SDS011;57229;51.432;-2.598;2023-10-09T00:52:41;14.80;;;8.75;;
56255;SDS011;57229;51.432;-2.598;2023-10-09T00:55:17;13.20;;;8.63;;
56255;SDS011;57229;51.432;-2.598;2023-10-09T00:58:02;13.13;;;9.10;;
56255;SDS011;57229;51.432;-2.598;2023-10-09T01:00:37;13.00;;;8.55;;
56255;SDS011;57229;51.432;-2.598;2023-10-09T01:03:09;11.63;;;8.68;;
56255;SDS011;57229;51.432;-2.598;2023-10-09T01:05:49;10.50;;;8.50;;
56255;SDS011;57229;51.432;-2.598;2023-10-09T01:08:26;11.38;;;8.52;;
56255;SDS011;57229;51.432;-2.598;2023-10-09T01:11:00;12.55;;;9.55;;
56255;SDS011;57229;51.432;-2.598;2023-10-09T01:13:36;16.90;;;9.48;;
56255;SDS011;57229;51.432;-2.598;2023-10-09T01:16:25;14.10;;;10.18;;
56255;SDS011;57229;51.432;-2.598;2023-10-09T01:18:55;17.48;;;9.80;;
56255;SDS011;57229;51.432;-2.598;2023-10-09T01:21:24;13.10;;;9.15;;
56255;SDS011;57229;51.432;-2.598;2023-10-09T01:23:51;13.93;;;9.50;;
56255;SDS011;57229;51.432;-2.598;2023-10-09T01:26:23;17.02;;;10.65;;
56255;SDS011;57229;51.432;-2.598;2023-10-09T01:28:50;18.02;;;9.65;;
56255;SDS011;57229;51.432;-2.598;2023-10-09T01:31:15;17.35;;;9.35;;
56255;SDS011;57229;51.432;-2.598;2023-10-09T01:33:41;13.25;;;8.98;;
56255;SDS011;57229;51.432;-2.598;2023-10-09T01:36:07;13.50;;;9.38;;
56255;SDS011;57229;51.432;-2.598;2023-10-09T01:38:34;17.15;;;9.63;;
56255;SDS011;57229;51.432;-2.598;2023-10-09T01:41:15;13.05;;;9.35;;
56255;SDS011;57229;51.432;-2.598;2023-10-09T01:43:44;16.70;;;9.45;;
56255;SDS011;57229;51.432;-2.598;2023-10-09T01:46:11;11.23;;;8.85;;
56255;SDS011;57229;51.432;-2.598;2023-10-09T01:48:37;14.23;;;10.05;;
56255;SDS011;57229;51.432;-2.598;2023-10-09T01:51:08;13.45;;;10.45;;
56255;SDS011;57229;51.432;-2.598;2023-10-09T01:53:39;15.20;;;10.77;;
56255;SDS011;57229;51.432;-2.598;2023-10-09T01:56:08;13.77;;;9.55;;
56255;SDS011;57229;51.432;-2.598;2023-10-09T01:58:40;15.40;;;9.80;;
56255;SDS011;57229;51.432;-2.598;2023-10-09T02:01:06;14.88;;;10.18;;
56255;SDS011;57229;51.432;-2.598;2023-10-09T02:03:32;16.20;;;10.02;;
56255;SDS011;57229;51.432;-2.598;2023-10-09T02:06:02;14.75;;;9.77;;
56255;SDS011;57229;51.432;-2.598;2023-10-09T02:08:42;13.98;;;9.82;;
56255;SDS011;57229;51.432;-2.598;2023-10-09T02:11:14;15.82;;;10.77;;
56255;SDS011;57229;51.432;-2.598;2023-10-09T02:13:49;14.82;;;10.20;;
56255;SDS011;57229;51.432;-2.598;2023-10-09T02:16:31;19.10;;;11.07;;
56255;SDS011;57229;51.432;-2.598;2023-10-09T02:19:06;19.15;;;10.45;;
56255;SDS011;57229;51.432;-2.598;2023-10-09T02:21:55;17.02;;;11.77;;
56255;SDS011;57229;51.432;-2.598;2023-10-09T02:24:22;18.45;;;11.20;;
56255;SDS011;57229;51.432;-2.598;2023-10-09T02:27:14;16.17;;;11.05;;
56255;SDS011;57229;51.432;-2.598;2023-10-09T02:29:59;15.23;;;10.88;;
56255;SDS011;57229;51.432;-2.598;2023-10-09T02:32:33;15.05;;;11.07;;
56255;SDS011;57229;51.432;-2.598;2023-10-09T02:35:00;20.27;;;11.60;;
56255;SDS011;57229;51.432;-2.598;2023-10-09T02:37:43;16.52;;;11.75;;
56255;SDS011;57229;51.432;-2.598;2023-10-09T02:40:11;21.05;;;11.95;;
56255;SDS011;57229;51.432;-2.598;2023-10-09T02:45:14;19.90;;;12.95;;
56255;SDS011;57229;51.432;-2.598;2023-10-09T02:47:49;26.40;;;14.27;;
56255;SDS011;57229;51.432;-2.598;2023-10-09T02:50:16;18.67;;;12.27;;
56255;SDS011;57229;51.432;-2.598;2023-10-09T02:52:46;20.80;;;13.98;;
56255;SDS011;57229;51.432;-2.598;2023-10-09T02:55:13;28.10;;;13.55;;
56255;SDS011;57229;51.432;-2.598;2023-10-09T02:57:48;22.33;;;13.40;;
56255;SDS011;57229;51.432;-2.598;2023-10-09T03:00:21;23.00;;;14.27;;
56255;SDS011;57229;51.432;-2.598;2023-10-09T03:02:55;22.90;;;14.00;;
56255;SDS011;57229;51.432;-2.598;2023-10-09T03:05:23;24.88;;;13.60;;
56255;SDS011;57229;51.432;-2.598;2023-10-09T03:07:52;22.02;;;14.10;;
56255;SDS011;57229;51.432;-2.598;2023-10-09T03:10:18;20.13;;;13.25;;
56255;SDS011;57229;51.432;-2.598;2023-10-09T03:12:44;18.40;;;13.20;;
56255;SDS011;57229;51.432;-2.598;2023-10-09T03:15:10;20.90;;;12.77;;
56255;SDS011;57229;51.432;-2.598;2023-10-09T03:17:36;19.05;;;12.40;;
56255;SDS011;57229;51.432;-2.598;2023-10-09T03:20:03;26.10;;;14.13;;
56255;SDS011;57229;51.432;-2.598;2023-10-09T03:22:37;20.50;;;13.93;;
56255;SDS011;57229;51.432;-2.598;2023-10-09T03:25:04;20.65;;;13.23;;
56255;SDS011;57229;51.432;-2.598;2023-10-09T03:27:37;21.67;;;13.75;;
56255;SDS011;57229;51.432;-2.598;2023-10-09T03:30:14;23.63;;;14.23;;
56255;SDS011;57229;51.432;-2.598;2023-10-09T03:32:51;26.73;;;14.85;;
56255;SDS011;57229;51.432;-2.598;2023-10-09T03:35:18;25.70;;;14.63;;
56255;SDS011;57229;51.432;-2.598;2023-10-09T03:37:53;27.02;;;14.75;;
56255;SDS011;57229;51.432;-2.598;2023-10-09T03:40:50;22.33;;;14.02;;
56255;SDS011;57229;51.432;-2.598;2023-10-09T03:43:15;26.52;;;16.80;;
56255;SDS011;57229;51.432;-2.598;2023-10-09T03:45:41;29.77;;;17.90;;
56255;SDS011;57229;51.432;-2.598;2023-10-09T03:48:19;34.05;;;19.48;;
56255;SDS011;57229;51.432;-2.598;2023-10-09T03:50:56;37.65;;;22.73;;
56255;SDS011;57229;51.432;-2.598;2023-10-09T03:53:37;47.05;;;24.60;;
56255;SDS011;57229;51.432;-2.598;2023-10-09T03:56:06;41.17;;;24.75;;
56255;SDS011;57229;51.432;-2.598;2023-10-09T03:58:43;45.08;;;24.08;;
56255;SDS011;57229;51.432;-2.598;2023-10-09T04:01:17;51.30;;;24.77;;
56255;SDS011;57229;51.432;-2.598;2023-10-09T04:03:53;47.42;;;27.40;;
56255;SDS011;57229;51.432;-2.598;2023-10-09T04:06:26;50.45;;;25.20;;
56255;SDS011;57229;51.432;-2.598;2023-10-09T04:09:04;55.20;;;24.92;;
56255;SDS011;57229;51.432;-2.598;2023-10-09T04:11:43;51.67;;;27.55;;
56255;SDS011;57229;51.432;-2.598;2023-10-09T04:14:15;52.85;;;27.85;;
56255;SDS011;57229;51.432;-2.598;2023-10-09T04:16:57;52.40;;;26.52;;
56255;SDS011;57229;51.432;-2.598;2023-10-09T04:19:29;60.00;;;29.13;;
56255;SDS011;57229;51.432;-2.598;2023-10-09T04:22:03;54.50;;;27.88;;
56255;SDS011;57229;51.432;-2.598;2023-10-09T04:24:33;54.72;;;27.95;;
56255;SDS011;57229;51.432;-2.598;2023-10-09T04:27:06;56.75;;;28.08;;
56255;SDS011;57229;51.432;-2.598;2023-10-09T04:29:33;53.70;;;27.15;;
56255;SDS011;57229;51.432;-2.598;2023-10-09T04:32:12;57.17;;;26.20;;
56255;SDS011;57229;51.432;-2.598;2023-10-09T04:34:44;49.15;;;26.25;;
56255;SDS011;57229;51.432;-2.598;2023-10-09T04:37:21;56.47;;;25.98;;
56255;SDS011;57229;51.432;-2.598;2023-10-09T04:40:08;56.20;;;28.30;;
56255;SDS011;57229;51.432;-2.598;2023-10-09T04:42:38;56.63;;;25.60;;
56255;SDS011;57229;51.432;-2.598;2023-10-09T04:45:07;73.88;;;28.77;;
56255;SDS011;57229;51.432;-2.598;2023-10-09T04:47:35;52.17;;;23.63;;
56255;SDS011;57229;51.432;-2.598;2023-10-09T04:50:10;60.50;;;25.92;;
56255;SDS011;57229;51.432;-2.598;2023-10-09T04:52:37;60.50;;;26.65;;
56255;SDS011;57229;51.432;-2.598;2023-10-09T04:55:03;67.18;;;28.08;;
56255;SDS011;57229;51.432;-2.598;2023-10-09T04:57:32;64.65;;;28.52;;
56255;SDS011;57229;51.432;-2.598;2023-10-09T05:02:47;66.30;;;28.50;;
56255;SDS011;57229;51.432;-2.598;2023-10-09T05:05:20;67.57;;;28.65;;
56255;SDS011;57229;51.432;-2.598;2023-10-09T05:08:04;61.90;;;26.83;;
56255;SDS011;57229;51.432;-2.598;2023-10-09T05:10:49;68.22;;;29.40;;
56255;SDS011;57229;51.432;-2.598;2023-10-09T05:16:05;60.05;;;30.08;;
56255;SDS011;57229;51.432;-2.598;2023-10-09T05:18:45;61.88;;;29.35;;
56255;SDS011;57229;51.432;-2.598;2023-10-09T05:21:21;53.70;;;28.58;;
56255;SDS011;57229;51.432;-2.598;2023-10-09T05:23:56;63.65;;;30.02;;
56255;SDS011;57229;51.432;-2.598;2023-10-09T05:26:37;56.63;;;28.75;;
56255;SDS011;57229;51.432;-2.598;2023-10-09T05:29:13;54.75;;;27.90;;
56255;SDS011;57229;51.432;-2.598;2023-10-09T05:31:58;54.97;;;28.45;;
56255;SDS011;57229;51.432;-2.598;2023-10-09T05:34:28;52.28;;;27.60;;
56255;SDS011;57229;51.432;-2.598;2023-10-09T05:37:02;55.00;;;26.70;;
56255;SDS011;57229;51.432;-2.598;2023-10-09T05:39:49;57.30;;;27.25;;
56255;SDS011;57229;51.432;-2.598;2023-10-09T05:42:31;50.85;;;26.45;;
56255;SDS011;57229;51.432;-2.598;2023-10-09T05:45:10;48.92;;;25.30;;
56255;SDS011;57229;51.432;-2.598;2023-10-09T05:47:45;45.65;;;26.10;;
56255;SDS011;57229;51.432;-2.598;2023-10-09T05:50:49;44.15;;;26.35;;
56255;SDS011;57229;51.432;-2.598;2023-10-09T05:53:21;45.85;;;24.77;;
56255;SDS011;57229;51.432;-2.598;2023-10-09T05:56:05;42.90;;;24.15;;
56255;SDS011;57229;51.432;-2.598;2023-10-09T05:58:49;50.35;;;24.90;;
56255;SDS011;57229;51.432;-2.598;2023-10-09T06:01:33;51.90;;;25.08;;
56255;SDS011;57229;51.432;-2.598;2023-10-09T06:04:17;47.72;;;26.60;;
56255;SDS011;57229;51.432;-2.598;2023-10-09T06:06:44;48.60;;;26.83;;
56255;SDS011;57229;51.432;-2.598;2023-10-09T06:09:11;47.72;;;25.60;;
56255;SDS011;57229;51.432;-2.598;2023-10-09T06:11:38;52.13;;;26.00;;
56255;SDS011;57229;51.432;-2.598;2023-10-09T06:14:04;46.30;;;25.88;;
56255;SDS011;57229;51.432;-2.598;2023-10-09T06:16:33;49.72;;;26.50;;
56255;SDS011;57229;51.432;-2.598;2023-10-09T06:21:56;53.90;;;26.42;;
56255;SDS011;57229;51.432;-2.598;2023-10-09T06:24:29;51.13;;;26.45;;
56255;SDS011;57229;51.432;-2.598;2023-10-09T06:27:13;52.38;;;25.38;;
56255;SDS011;57229;51.432;-2.598;2023-10-09T06:29:49;49.85;;;25.13;;
56255;SDS011;57229;51.432;-2.598;2023-10-09T06:32:15;50.97;;;25.50;;
56255;SDS011;57229;51.432;-2.598;2023-10-09T06:34:44;57.42;;;24.40;;
56255;SDS011;57229;51.432;-2.598;2023-10-09T06:37:11;55.00;;;25.70;;
56255;SDS011;57229;51.432;-2.598;2023-10-09T06:39:50;48.65;;;25.55;;
56255;SDS011;57229;51.432;-2.598;2023-10-09T06:42:35;51.63;;;25.23;;
56255;SDS011;57229;51.432;-2.598;2023-10-09T06:45:10;54.53;;;25.40;;
56255;SDS011;57229;51.432;-2.598;2023-10-09T06:47:41;49.97;;;24.67;;
56255;SDS011;57229;51.432;-2.598;2023-10-09T06:50:34;50.60;;;24.55;;
56255;SDS011;57229;51.432;-2.598;2023-10-09T06:53:18;55.45;;;25.35;;
56255;SDS011;57229;51.432;-2.598;2023-10-09T06:55:44;43.33;;;23.30;;
56255;SDS011;57229;51.432;-2.598;2023-10-09T06:58:28;49.88;;;24.38;;
56255;SDS011;57229;51.432;-2.598;2023-10-09T07:01:06;52.83;;;25.25;;
56255;SDS011;57229;51.432;-2.598;2023-10-09T07:03:44;49.28;;;25.48;;
56255;SDS011;57229;51.432;-2.598;2023-10-09T07:06:25;40.65;;;22.85;;
56255;SDS011;57229;51.432;-2.598;2023-10-09T07:09:00;49.67;;;23.85;;
56255;SDS011;57229;51.432;-2.598;2023-10-09T07:11:31;47.80;;;24.10;;
56255;SDS011;57229;51.432;-2.598;2023-10-09T07:14:13;46.42;;;23.45;;
56255;SDS011;57229;51.432;-2.598;2023-10-09T07:16:55;45.28;;;23.13;;
56255;SDS011;57229;51.432;-2.598;2023-10-09T07:19:25;40.22;;;22.13;;
56255;SDS011;57229;51.432;-2.598;2023-10-09T07:22:17;43.30;;;21.88;;
56255;SDS011;57229;51.432;-2.598;2023-10-09T07:24:46;45.33;;;22.90;;
56255;SDS011;57229;51.432;-2.598;2023-10-09T07:27:17;38.90;;;21.77;;
56255;SDS011;57229;51.432;-2.598;2023-10-09T07:30:04;39.03;;;21.75;;
56255;SDS011;57229;51.432;-2.598;2023-10-09T07:32:50;41.83;;;21.90;;
56255;SDS011;57229;51.432;-2.598;2023-10-09T07:35:19;41.33;;;20.90;;
56255;SDS011;57229;51.432;-2.598;2023-10-09T07:38:06;36.92;;;19.85;;
56255;SDS011;57229;51.432;-2.598;2023-10-09T07:40:36;40.50;;;20.23;;
56255;SDS011;57229;51.432;-2.598;2023-10-09T07:43:38;33.83;;;19.50;;
56255;SDS011;57229;51.432;-2.598;2023-10-09T07:46:06;38.42;;;20.05;;
56255;SDS011;57229;51.432;-2.598;2023-10-09T07:48:57;38.90;;;19.02;;
56255;SDS011;57229;51.432;-2.598;2023-10-09T07:51:38;41.78;;;19.55;;
56255;SDS011;57229;51.432;-2.598;2023-10-09T07:54:08;31.40;;;19.17;;
56255;SDS011;57229;51.432;-2.598;2023-10-09T07:56:39;30.70;;;19.45;;
56255;SDS011;57229;51.432;-2.598;2023-10-09T07:59:09;40.30;;;20.20;;
56255;SDS011;57229;51.432;-2.598;2023-10-09T08:01:49;37.92;;;19.35;;
56255;SDS011;57229;51.432;-2.598;2023-10-09T08:04:21;32.30;;;19.35;;
56255;SDS011;57229;51.432;-2.598;2023-10-09T08:07:09;35.92;;;17.50;;
56255;SDS011;57229;51.432;-2.598;2023-10-09T08:09:44;32.15;;;18.27;;
56255;SDS011;57229;51.432;-2.598;2023-10-09T08:12:13;31.80;;;17.63;;
56255;SDS011;57229;51.432;-2.598;2023-10-09T08:14:59;30.95;;;17.13;;
56255;SDS011;57229;51.432;-2.598;2023-10-09T08:17:45;33.70;;;18.80;;
56255;SDS011;57229;51.432;-2.598;2023-10-09T08:20:21;35.78;;;17.98;;
56255;SDS011;57229;51.432;-2.598;2023-10-09T08:23:01;28.52;;;17.60;;
56255;SDS011;57229;51.432;-2.598;2023-10-09T08:25:30;30.90;;;16.85;;
56255;SDS011;57229;51.432;-2.598;2023-10-09T08:28:00;30.10;;;16.88;;
56255;SDS011;57229;51.432;-2.598;2023-10-09T08:30:57;26.48;;;16.88;;
56255;SDS011;57229;51.432;-2.598;2023-10-09T08:33:23;27.63;;;16.85;;
56255;SDS011;57229;51.432;-2.598;2023-10-09T08:35:53;30.85;;;16.98;;
56255;SDS011;57229;51.432;-2.598;2023-10-09T08:38:32;35.03;;;17.15;;
56255;SDS011;57229;51.432;-2.598;2023-10-09T08:41:11;26.95;;;16.17;;
56255;SDS011;57229;51.432;-2.598;2023-10-09T08:43:50;36.58;;;16.35;;
56255;SDS011;57229;51.432;-2.598;2023-10-09T08:46:21;28.33;;;16.00;;
56255;SDS011;57229;51.432;-2.598;2023-10-09T08:48:52;40.72;;;17.42;;
56255;SDS011;57229;51.432;-2.598;2023-10-09T08:51:24;27.50;;;15.52;;
56255;SDS011;57229;51.432;-2.598;2023-10-09T08:53:51;20.80;;;14.40;;
56255;SDS011;57229;51.432;-2.598;2023-10-09T08:56:18;24.77;;;14.63;;
56255;SDS011;57229;51.432;-2.598;2023-10-09T08:58:57;23.77;;;14.93;;
56255;SDS011;57229;51.432;-2.598;2023-10-09T09:01:24;22.88;;;14.77;;
56255;SDS011;57229;51.432;-2.598;2023-10-09T09:03:51;25.85;;;14.45;;
56255;SDS011;57229;51.432;-2.598;2023-10-09T09:06:20;24.45;;;14.32;;
56255;SDS011;57229;51.432;-2.598;2023-10-09T09:08:49;26.02;;;15.30;;
56255;SDS011;57229;51.432;-2.598;2023-10-09T09:11:20;28.00;;;14.98;;
56255;SDS011;57229;51.432;-2.598;2023-10-09T09:14:10;26.45;;;16.23;;
56255;SDS011;57229;51.432;-2.598;2023-10-09T09:16:44;24.48;;;15.65;;
56255;SDS011;57229;51.432;-2.598;2023-10-09T09:19:13;29.23;;;15.85;;
56255;SDS011;57229;51.432;-2.598;2023-10-09T09:21:43;24.70;;;16.38;;
56255;SDS011;57229;51.432;-2.598;2023-10-09T09:24:14;25.23;;;15.63;;
56255;SDS011;57229;51.432;-2.598;2023-10-09T09:26:57;25.50;;;15.57;;
56255;SDS011;57229;51.432;-2.598;2023-10-09T09:32:02;20.13;;;13.73;;
56255;SDS011;57229;51.432;-2.598;2023-10-09T09:34:45;20.52;;;12.52;;
56255;SDS011;57229;51.432;-2.598;2023-10-09T09:37:18;18.30;;;11.90;;
56255;SDS011;57229;51.432;-2.598;2023-10-09T09:39:45;21.25;;;12.18;;
56255;SDS011;57229;51.432;-2.598;2023-10-09T09:42:15;19.63;;;12.02;;
56255;SDS011;57229;51.432;-2.598;2023-10-09T09:44:49;18.50;;;12.07;;
56255;SDS011;57229;51.432;-2.598;2023-10-09T09:47:16;19.65;;;12.15;;
56255;SDS011;57229;51.432;-2.598;2023-10-09T09:49:55;15.55;;;11.73;;
56255;SDS011;57229;51.432;-2.598;2023-10-09T09:52:33;16.88;;;10.50;;
56255;SDS011;57229;51.432;-2.598;2023-10-09T09:55:08;14.65;;;11.13;;
56255;SDS011;57229;51.432;-2.598;2023-10-09T09:57:47;16.38;;;10.30;;
56255;SDS011;57229;51.432;-2.598;2023-10-09T10:00:18;17.65;;;10.00;;
56255;SDS011;57229;51.432;-2.598;2023-10-09T10:03:05;16.42;;;10.57;;
56255;SDS011;57229;51.432;-2.598;2023-10-09T10:05:48;13.07;;;10.27;;
56255;SDS011;57229;51.432;-2.598;2023-10-09T10:08:18;17.15;;;10.18;;
56255;SDS011;57229;51.432;-2.598;2023-10-09T10:10:49;14.68;;;9.90;;
56255;SDS011;57229;51.432;-2.598;2023-10-09T10:16:08;11.00;;;9.25;;
56255;SDS011;57229;51.432;-2.598;2023-10-09T10:18:59;12.18;;;8.75;;
56255;SDS011;57229;51.432;-2.598;2023-10-09T10:21:32;11.82;;;9.57;;
56255;SDS011;57229;51.432;-2.598;2023-10-09T10:29:35;14.50;;;9.10;;
56255;SDS011;57229;51.432;-2.598;2023-10-09T10:32:03;12.68;;;9.20;;
56255;SDS011;57229;51.432;-2.598;2023-10-09T10:37:42;12.32;;;9.25;;
56255;SDS011;57229;51.432;-2.598;2023-10-09T10:40:24;13.40;;;9.07;;
56255;SDS011;57229;51.432;-2.598;2023-10-09T10:43:14;14.25;;;8.75;;
56255;SDS011;57229;51.432;-2.598;2023-10-09T10:46:06;11.75;;;9.82;;
56255;SDS011;57229;51.432;-2.598;2023-10-09T10:48:51;13.20;;;9.55;;
56255;SDS011;57229;51.432;-2.598;2023-10-09T10:51:50;15.82;;;11.45;;
56255;SDS011;57229;51.432;-2.598;2023-10-09T10:54:40;9.85;;;8.85;;
56255;SDS011;57229;51.432;-2.598;2023-10-09T10:57:19;12.20;;;8.80;;
56255;SDS011;57229;51.432;-2.598;2023-10-09T11:00:16;12.18;;;8.98;;
56255;SDS011;57229;51.432;-2.598;2023-10-09T11:03:00;9.57;;;8.20;;
56255;SDS011;57229;51.432;-2.598;2023-10-09T11:05:41;10.48;;;8.32;;
56255;SDS011;57229;51.432;-2.598;2023-10-09T11:08:10;10.80;;;9.15;;
56255;SDS011;57229;51.432;-2.598;2023-10-09T11:10:37;12.10;;;8.10;;
56255;SDS011;57229;51.432;-2.598;2023-10-09T11:13:24;11.30;;;8.90;;
56255;SDS011;57229;51.432;-2.598;2023-10-09T11:16:01;11.13;;;8.45;;
56255;SDS011;57229;51.432;-2.598;2023-10-09T11:18:52;9.15;;;7.90;;
56255;SDS011;57229;51.432;-2.598;2023-10-09T11:21:20;11.15;;;7.70;;
56255;SDS011;57229;51.432;-2.598;2023-10-09T11:23:46;10.68;;;7.72;;
56255;SDS011;57229;51.432;-2.598;2023-10-09T11:26:17;11.95;;;7.65;;
56255;SDS011;57229;51.432;-2.598;2023-10-09T11:29:09;8.80;;;7.75;;
56255;SDS011;57229;51.432;-2.598;2023-10-09T11:31:58;10.40;;;7.78;;
56255;SDS011;57229;51.432;-2.598;2023-10-09T11:34:28;8.48;;;7.32;;
56255;SDS011;57229;51.432;-2.598;2023-10-09T11:36:58;9.30;;;7.35;;
56255;SDS011;57229;51.432;-2.598;2023-10-09T11:39:28;9.93;;;7.38;;
56255;SDS011;57229;51.432;-2.598;2023-10-09T11:42:15;11.43;;;7.50;;
56255;SDS011;57229;51.432;-2.598;2023-10-09T11:47:34;12.50;;;7.57;;
56255;SDS011;57229;51.432;-2.598;2023-10-09T11:50:00;10.13;;;7.45;;
56255;SDS011;57229;51.432;-2.598;2023-10-09T11:52:29;7.03;;;6.30;;
56255;SDS011;57229;51.432;-2.598;2023-10-09T11:55:21;8.65;;;7.03;;
56255;SDS011;57229;51.432;-2.598;2023-10-09T11:57:50;7.72;;;6.88;;
56255;SDS011;57229;51.432;-2.598;2023-10-09T12:00:17;10.70;;;6.15;;
56255;SDS011;57229;51.432;-2.598;2023-10-09T12:02:57;8.38;;;6.50;;
56255;SDS011;57229;51.432;-2.598;2023-10-09T12:05:30;7.05;;;6.32;;
56255;SDS011;57229;51.432;-2.598;2023-10-09T12:07:59;7.88;;;5.90;;
56255;SDS011;57229;51.432;-2.598;2023-10-09T12:10:26;6.43;;;5.82;;
56255;SDS011;57229;51.432;-2.598;2023-10-09T12:12:52;6.80;;;6.00;;
56255;SDS011;57229;51.432;-2.598;2023-10-09T12:15:19;6.65;;;6.05;;
56255;SDS011;57229;51.432;-2.598;2023-10-09T12:17:46;6.43;;;5.85;;
56255;SDS011;57229;51.432;-2.598;2023-10-09T12:20:15;7.93;;;5.97;;
56255;SDS011;57229;51.432;-2.598;2023-10-09T12:25:23;10.40;;;6.00;;
56255;SDS011;57229;51.432;-2.598;2023-10-09T12:27:49;7.07;;;6.20;;
56255;SDS011;57229;51.432;-2.598;2023-10-09T12:30:19;7.75;;;5.97;;
56255;SDS011;57229;51.432;-2.598;2023-10-09T12:32:51;7.50;;;6.30;;
56255;SDS011;57229;51.432;-2.598;2023-10-09T12:35:18;8.85;;;6.00;;
56255;SDS011;57229;51.432;-2.598;2023-10-09T12:37:44;6.72;;;5.85;;
56255;SDS011;57229;51.432;-2.598;2023-10-09T12:40:09;6.32;;;5.63;;
56255;SDS011;57229;51.432;-2.598;2023-10-09T12:42:36;9.93;;;5.50;;
56255;SDS011;57229;51.432;-2.598;2023-10-09T12:45:02;8.35;;;5.72;;
56255;SDS011;57229;51.432;-2.598;2023-10-09T12:47:33;7.53;;;5.90;;
56255;SDS011;57229;51.432;-2.598;2023-10-09T12:50:04;6.28;;;5.65;;
56255;SDS011;57229;51.432;-2.598;2023-10-09T12:52:35;6.57;;;5.70;;
56255;SDS011;57229;51.432;-2.598;2023-10-09T12:55:02;7.18;;;5.35;;
56255;SDS011;57229;51.432;-2.598;2023-10-09T12:57:33;8.75;;;5.85;;
56255;SDS011;57229;51.432;-2.598;2023-10-09T13:00:06;14.57;;;5.72;;
56255;SDS011;57229;51.432;-2.598;2023-10-09T13:02:37;7.63;;;5.47;;
56255;SDS011;57229;51.432;-2.598;2023-10-09T13:05:08;7.53;;;5.22;;
56255;SDS011;57229;51.432;-2.598;2023-10-09T13:07:35;5.93;;;5.35;;
56255;SDS011;57229;51.432;-2.598;2023-10-09T13:10:00;6.20;;;4.80;;
56255;SDS011;57229;51.432;-2.598;2023-10-09T13:12:38;8.75;;;5.13;;
56255;SDS011;57229;51.432;-2.598;2023-10-09T13:15:07;6.60;;;4.90;;
56255;SDS011;57229;51.432;-2.598;2023-10-09T13:17:37;6.35;;;4.95;;
56255;SDS011;57229;51.432;-2.598;2023-10-09T13:20:04;6.88;;;5.15;;
56255;SDS011;57229;51.432;-2.598;2023-10-09T13:22:40;5.78;;;5.13;;
56255;SDS011;57229;51.432;-2.598;2023-10-09T13:25:07;8.38;;;5.22;;
56255;SDS011;57229;51.432;-2.598;2023-10-09T13:27:40;6.47;;;4.97;;
56255;SDS011;57229;51.432;-2.598;2023-10-09T13:30:16;6.43;;;5.20;;
56255;SDS011;57229;51.432;-2.598;2023-10-09T13:32:47;8.32;;;5.20;;
56255;SDS011;57229;51.432;-2.598;2023-10-09T13:35:15;9.43;;;5.30;;
56255;SDS011;57229;51.432;-2.598;2023-10-09T13:37:47;5.53;;;5.03;;
56255;SDS011;57229;51.432;-2.598;2023-10-09T13:42:52;7.03;;;5.40;;
56255;SDS011;57229;51.432;-2.598;2023-10-09T13:45:23;6.68;;;5.18;;
56255;SDS011;57229;51.432;-2.598;2023-10-09T13:47:55;9.90;;;5.82;;
56255;SDS011;57229;51.432;-2.598;2023-10-09T13:50:25;5.78;;;5.20;;
56255;SDS011;57229;51.432;-2.598;2023-10-09T13:52:58;6.15;;;5.50;;
56255;SDS011;57229;51.432;-2.598;2023-10-09T13:55:26;6.85;;;5.63;;
56255;SDS011;57229;51.432;-2.598;2023-10-09T13:58:08;7.53;;;5.35;;
56255;SDS011;57229;51.432;-2.598;2023-10-09T14:00:38;6.18;;;5.22;;
56255;SDS011;57229;51.432;-2.598;2023-10-09T14:03:07;5.88;;;5.30;;
56255;SDS011;57229;51.432;-2.598;2023-10-09T14:05:39;7.60;;;5.85;;
56255;SDS011;57229;51.432;-2.598;2023-10-09T14:08:22;5.97;;;5.30;;
56255;SDS011;57229;51.432;-2.598;2023-10-09T14:10:49;7.80;;;5.20;;
56255;SDS011;57229;51.432;-2.598;2023-10-09T14:13:15;6.55;;;5.50;;
56255;SDS011;57229;51.432;-2.598;2023-10-09T14:15:42;6.63;;;5.40;;
56255;SDS011;57229;51.432;-2.598;2023-10-09T14:18:11;8.30;;;5.50;;
56255;SDS011;57229;51.432;-2.598;2023-10-09T14:20:37;5.85;;;5.35;;
56255;SDS011;57229;51.432;-2.598;2023-10-09T14:23:06;8.25;;;5.25;;
56255;SDS011;57229;51.432;-2.598;2023-10-09T14:25:35;6.93;;;5.60;;
56255;SDS011;57229;51.432;-2.598;2023-10-09T14:28:07;9.35;;;6.03;;
56255;SDS011;57229;51.432;-2.598;2023-10-09T14:30:37;6.20;;;5.60;;
56255;SDS011;57229;51.432;-2.598;2023-10-09T14:33:10;6.38;;;5.47;;
56255;SDS011;57229;51.432;-2.598;2023-10-09T14:35:40;9.57;;;5.90;;
56255;SDS011;57229;51.432;-2.598;2023-10-09T14:38:07;8.20;;;6.25;;
56255;SDS011;57229;51.432;-2.598;2023-10-09T14:40:40;8.57;;;5.50;;
56255;SDS011;57229;51.432;-2.598;2023-10-09T14:43:11;7.75;;;5.55;;
56255;SDS011;57229;51.432;-2.598;2023-10-09T14:45:50;6.10;;;5.50;;
56255;SDS011;57229;51.432;-2.598;2023-10-09T14:48:18;7.10;;;5.97;;
56255;SDS011;57229;51.432;-2.598;2023-10-09T14:50:51;8.10;;;6.00;;
56255;SDS011;57229;51.432;-2.598;2023-10-09T14:53:18;7.60;;;6.10;;
56255;SDS011;57229;51.432;-2.598;2023-10-09T14:55:45;8.23;;;6.47;;
56255;SDS011;57229;51.432;-2.598;2023-10-09T14:58:12;7.32;;;6.25;;
56255;SDS011;57229;51.432;-2.598;2023-10-09T15:00:39;11.55;;;6.30;;
56255;SDS011;57229;51.432;-2.598;2023-10-09T15:03:11;17.67;;;9.93;;
56255;SDS011;57229;51.432;-2.598;2023-10-09T15:05:39;11.88;;;7.95;;
56255;SDS011;57229;51.432;-2.598;2023-10-09T15:08:08;7.10;;;6.30;;
56255;SDS011;57229;51.432;-2.598;2023-10-09T15:10:48;8.77;;;6.43;;
56255;SDS011;57229;51.432;-2.598;2023-10-09T15:13:17;9.77;;;6.97;;
56255;SDS011;57229;51.432;-2.598;2023-10-09T15:15:43;8.80;;;7.60;;
56255;SDS011;57229;51.432;-2.598;2023-10-09T15:18:09;8.27;;;7.50;;
56255;SDS011;57229;51.432;-2.598;2023-10-09T15:20:38;51.88;;;28.23;;
56255;SDS011;57229;51.432;-2.598;2023-10-09T15:23:05;30.52;;;15.82;;
56255;SDS011;57229;51.432;-2.598;2023-10-09T15:25:32;24.98;;;11.90;;
56255;SDS011;57229;51.432;-2.598;2023-10-09T15:27:59;32.85;;;14.07;;
56255;SDS011;57229;51.432;-2.598;2023-10-09T15:30:28;56.40;;;22.85;;